Terminal Aerodrome Forecast
Issued by NWS Twin Cities, MN

Home | Current Version | Previous Version | Text Only | Print | Product List | Glossary Off
Versions: 1 2 3 4 5 6 7 8 9 10 11 12 13 14 15 16 17 18

000
FTUS43 KMPX 211100
TAFEAU
TAF
KEAU 211140Z 2112/2212 18008KT P6SM OVC050
     FM211500 18012KT P6SM BKN050
     FM212300 16010KT P6SM SCT050 BKN150
     FM220800 17008KT P6SM VCTS BKN050CB OVC100=

USA.gov is the U.S. government's official web portal to all federal, state and local government web resources and services.